createdAt,value
2019-05-21T00:01:40.003Z,67.32
2019-05-21T00:04:08.585Z,60.52
2019-05-21T00:06:37.068Z,64.95
2019-05-21T00:09:06.097Z,68.95
2019-05-21T00:11:34.567Z,65.67
2019-05-21T00:14:03.126Z,71.45
2019-05-21T00:16:31.590Z,71.90
2019-05-21T00:19:00.102Z,63.87
2019-05-21T00:21:28.554Z,57.90
2019-05-21T00:23:57.125Z,67.35
2019-05-21T00:26:25.555Z,62.00
2019-05-21T00:29:30.635Z,65.97
2019-05-21T00:32:35.517Z,56.58
2019-05-21T00:35:44.842Z,61.98
2019-05-21T00:38:51.895Z,57.73
2019-05-21T00:41:56.304Z,58.87
2019-05-21T00:44:24.736Z,61.90
2019-05-21T00:46:53.183Z,60.95
2019-05-21T00:49:21.687Z,73.67
2019-05-21T00:51:50.137Z,58.28
2019-05-21T00:54:18.588Z,59.20
2019-05-21T00:56:47.031Z,60.10
2019-05-21T00:59:15.490Z,64.85
2019-05-21T01:01:43.965Z,67.42
2019-05-21T01:04:12.709Z,65.80
2019-05-21T01:06:42.616Z,58.23
2019-05-21T01:09:11.285Z,72.13
2019-05-21T01:11:39.750Z,61.68
2019-05-21T01:14:08.353Z,58.45
2019-05-21T01:16:36.817Z,74.47
2019-05-21T01:19:05.279Z,71.50
2019-05-21T01:21:33.777Z,68.78
2019-05-21T01:24:02.230Z,71.57
2019-05-21T01:26:30.773Z,76.17
2019-05-21T01:28:59.218Z,92.67
2019-05-21T01:31:27.720Z,89.17
2019-05-21T01:33:56.182Z,87.20
2019-05-21T01:36:24.721Z,85.20
2019-05-21T01:38:53.344Z,83.12
2019-05-21T01:41:23.337Z,83.42
2019-05-21T01:43:51.786Z,89.65
2019-05-21T01:46:20.276Z,83.47
2019-05-21T01:48:48.766Z,67.20
2019-05-21T01:51:17.261Z,74.67
2019-05-21T01:53:45.734Z,68.22
2019-05-21T01:56:16.007Z,59.33
2019-05-21T01:58:44.449Z,63.00
2019-05-21T02:01:12.780Z,61.63
2019-05-21T02:03:41.224Z,72.25
2019-05-21T02:06:10.003Z,57.00
2019-05-21T02:08:38.642Z,49.55
2019-05-21T02:11:07.082Z,51.50
2019-05-21T02:13:35.552Z,43.78
2019-05-21T02:16:04.030Z,45.35
2019-05-21T02:18:32.567Z,43.75
2019-05-21T02:21:00.987Z,46.30
2019-05-21T02:23:29.434Z,54.90
2019-05-21T02:25:57.878Z,45.08
2019-05-21T02:28:26.427Z,46.15
2019-05-21T02:30:56.588Z,45.95
2019-05-21T02:33:25.043Z,51.33
2019-05-21T02:35:55.038Z,52.75
2019-05-21T02:38:23.694Z,47.95
2019-05-21T02:40:52.305Z,52.80
2019-05-21T02:43:20.745Z,60.80
2019-05-21T02:45:49.210Z,57.10
2019-05-21T02:48:17.666Z,54.55
2019-05-21T02:50:46.113Z,64.40
2019-05-21T02:53:14.638Z,59.98
2019-05-21T02:55:43.058Z,59.35
2019-05-21T02:58:11.503Z,66.28
2019-05-21T03:00:58.264Z,63.25
2019-05-21T03:03:28.432Z,69.10
2019-05-21T03:06:12.433Z,67.67
2019-05-21T03:08:27.128Z,63.63
2019-05-21T03:10:55.610Z,69.70
2019-05-21T03:13:24.100Z,78.70
2019-05-21T03:15:52.567Z,73.45
2019-05-21T03:18:21.047Z,61.83
2019-05-21T03:20:49.496Z,67.72
2019-05-21T03:23:17.940Z,74.90
2019-05-21T03:25:46.379Z,71.50
2019-05-21T03:28:14.816Z,73.22
2019-05-21T03:30:43.277Z,69.27
2019-05-21T03:33:11.793Z,82.08
2019-05-21T03:35:40.225Z,72.45
2019-05-21T03:38:08.669Z,75.83
2019-05-21T03:40:37.111Z,76.82
2019-05-21T03:43:05.538Z,79.55
2019-05-21T03:45:33.988Z,82.57
2019-05-21T03:48:04.061Z,81.00
2019-05-21T03:50:32.492Z,95.00
2019-05-21T03:53:00.917Z,94.60
2019-05-21T03:55:29.394Z,88.07
2019-05-21T03:57:57.818Z,93.55
2019-05-21T04:00:27.799Z,92.92
2019-05-21T04:02:56.244Z,94.42
2019-05-21T04:05:25.660Z,92.15
2019-05-21T04:07:54.118Z,92.57
2019-05-21T04:10:24.082Z,104.15
2019-05-21T04:13:07.779Z,100.95
2019-05-21T04:15:40.072Z,102.35
2019-05-21T04:18:12.886Z,106.35
2019-05-21T04:20:41.347Z,108.83
2019-05-21T04:23:09.799Z,100.90
2019-05-21T04:25:38.265Z,103.80
2019-05-21T04:28:06.685Z,110.85
2019-05-21T04:30:35.153Z,118.50
2019-05-21T04:33:03.627Z,119.22
2019-05-21T04:35:32.134Z,142.43
2019-05-21T04:38:00.564Z,133.57
2019-05-21T04:40:29.097Z,145.75
2019-05-21T04:43:01.853Z,140.07
2019-05-21T04:45:29.473Z,140.95
2019-05-21T04:47:57.888Z,139.22
2019-05-21T04:50:26.355Z,143.70
2019-05-21T04:52:54.858Z,143.72
2019-05-21T04:55:23.363Z,146.35
2019-05-21T04:57:51.824Z,145.68
2019-05-21T05:00:20.299Z,150.18
2019-05-21T05:02:48.781Z,146.00
2019-05-21T05:05:17.389Z,144.35
2019-05-21T05:07:45.881Z,144.85
2019-05-21T05:10:19.017Z,154.45
2019-05-21T05:12:49.014Z,132.12
2019-05-21T05:15:17.546Z,134.95
2019-05-21T05:17:46.082Z,151.60
2019-05-21T05:20:14.693Z,134.52
2019-05-21T05:22:46.477Z,130.90
2019-05-21T05:25:15.177Z,119.17
2019-05-21T05:27:43.675Z,144.45
2019-05-21T05:30:12.409Z,116.70
2019-05-21T05:32:40.928Z,120.55
2019-05-21T05:35:09.632Z,117.00
2019-05-21T05:37:43.909Z,123.65
2019-05-21T05:40:09.139Z,118.22
2019-05-21T05:42:40.245Z,124.47
2019-05-21T05:45:09.636Z,124.55
2019-05-21T05:47:38.202Z,119.62
2019-05-21T05:50:11.914Z,122.15
2019-05-21T05:52:40.389Z,115.05
2019-05-21T05:55:09.122Z,120.75
2019-05-21T05:57:37.646Z,117.08
2019-05-21T06:00:08.893Z,106.97
2019-05-21T06:02:37.368Z,110.85
2019-05-21T06:05:07.366Z,108.57
2019-05-21T06:07:35.895Z,125.62
2019-05-21T06:10:06.007Z,111.77
2019-05-21T06:12:34.703Z,89.28
2019-05-21T06:15:03.453Z,96.55
2019-05-21T06:17:31.911Z,105.85
2019-05-21T06:20:00.376Z,84.75
2019-05-21T06:22:29.003Z,104.00
2019-05-21T06:24:57.624Z,98.12
2019-05-21T06:27:26.087Z,94.15
2019-05-21T06:29:54.552Z,88.75
2019-05-21T06:32:23.054Z,88.50
2019-05-21T06:34:51.554Z,91.45
2019-05-21T06:37:20.078Z,86.72
2019-05-21T06:39:48.581Z,79.47
2019-05-21T06:42:17.064Z,102.38
2019-05-21T06:44:45.527Z,85.10
2019-05-21T06:47:13.948Z,84.00
2019-05-21T06:49:42.507Z,91.12
2019-05-21T06:52:10.979Z,89.65
2019-05-21T06:54:39.470Z,84.80
2019-05-21T06:57:07.970Z,70.35
2019-05-21T06:59:36.498Z,71.62
2019-05-21T07:02:05.013Z,73.95
2019-05-21T07:04:33.464Z,70.00
2019-05-21T07:07:01.926Z,66.05
2019-05-21T07:09:30.400Z,70.60
2019-05-21T07:11:58.846Z,64.35
2019-05-21T07:14:28.883Z,75.40
2019-05-21T07:16:57.374Z,66.10
2019-05-21T07:19:25.825Z,69.67
2019-05-21T07:21:54.321Z,72.45
2019-05-21T07:24:22.770Z,72.05
2019-05-21T07:26:51.249Z,67.15
2019-05-21T07:29:19.702Z,65.83
2019-05-21T07:31:48.960Z,61.63
2019-05-21T07:34:17.626Z,65.83
2019-05-21T07:36:46.069Z,67.53
2019-05-21T07:39:14.556Z,58.65
2019-05-21T07:41:44.577Z,61.95
2019-05-21T07:44:13.051Z,65.47
2019-05-21T07:46:44.097Z,60.08
2019-05-21T07:49:14.147Z,62.20
2019-05-21T07:51:45.000Z,72.35
2019-05-21T07:56:50.973Z,67.58
2019-05-21T07:59:19.642Z,67.53
2019-05-21T08:01:49.112Z,60.05
2019-05-21T08:04:21.967Z,58.50
2019-05-21T08:07:00.710Z,54.65
2019-05-21T08:09:30.396Z,55.92
2019-05-21T08:15:02.754Z,55.35
2019-05-21T08:17:34.364Z,68.87
2019-05-21T08:20:09.879Z,45.50
2019-05-21T08:22:41.103Z,44.45
2019-05-21T08:25:15.438Z,42.30
2019-05-21T08:27:44.846Z,43.70
2019-05-21T08:30:21.450Z,43.50
2019-05-21T08:32:51.958Z,41.23
2019-05-21T08:35:19.847Z,47.62
2019-05-21T08:37:48.350Z,39.78
2019-05-21T08:40:17.037Z,50.78
2019-05-21T08:42:47.056Z,45.23
2019-05-21T08:45:16.190Z,36.40
2019-05-21T08:47:44.712Z,36.65
2019-05-21T08:50:13.728Z,38.00
2019-05-21T08:52:42.209Z,36.30
2019-05-21T08:55:12.435Z,56.18
2019-05-21T08:57:41.124Z,33.98
2019-05-21T09:00:14.045Z,29.32
2019-05-21T09:02:42.523Z,33.88
2019-05-21T09:05:12.123Z,29.23
2019-05-21T09:07:40.599Z,27.50
2019-05-21T09:10:09.697Z,29.67
2019-05-21T09:12:39.820Z,24.75
2019-05-21T09:15:09.108Z,21.48
2019-05-21T09:17:37.635Z,23.92
2019-05-21T09:20:08.248Z,25.68
2019-05-21T09:22:36.715Z,21.27
2019-05-21T09:25:30.288Z,24.50
2019-05-21T09:27:58.861Z,21.12
2019-05-21T09:30:27.469Z,27.93
2019-05-21T09:32:55.999Z,23.62
2019-05-21T09:35:28.179Z,26.62
2019-05-21T09:37:56.800Z,24.18
2019-05-21T09:40:35.772Z,27.27
2019-05-21T09:43:04.326Z,25.72
2019-05-21T09:45:32.734Z,29.05
2019-05-21T09:48:01.400Z,30.23
2019-05-21T09:50:34.198Z,27.42
2019-05-21T09:53:02.937Z,25.75
2019-05-21T09:55:33.556Z,26.33
2019-05-21T09:58:12.342Z,27.65
2019-05-21T10:00:54.502Z,30.65
2019-05-21T10:03:39.995Z,32.33
2019-05-21T10:06:08.522Z,24.65
2019-05-21T10:08:37.351Z,27.60
2019-05-21T10:11:05.859Z,28.85
2019-05-21T10:13:34.727Z,25.77
2019-05-21T10:16:03.316Z,28.45
2019-05-21T10:18:36.079Z,27.27
2019-05-21T10:21:04.643Z,28.45
2019-05-21T10:23:34.839Z,26.40
2019-05-21T10:26:06.396Z,30.35
2019-05-21T10:28:37.114Z,26.57
2019-05-21T10:31:05.586Z,27.73
2019-05-21T10:33:35.872Z,25.68
2019-05-21T10:36:07.690Z,27.73
2019-05-21T10:38:36.282Z,26.87
2019-05-21T10:41:05.096Z,31.25
2019-05-21T10:43:33.652Z,25.40
2019-05-21T10:46:09.846Z,26.52
2019-05-21T10:48:43.006Z,32.33
2019-05-21T10:51:11.653Z,24.72
2019-05-21T10:53:40.198Z,29.02
2019-05-21T10:56:08.798Z,29.12
2019-05-21T10:58:37.270Z,24.12
2019-05-21T11:01:10.449Z,25.62
2019-05-21T11:03:46.061Z,25.95
2019-05-21T11:06:16.264Z,23.55
2019-05-21T11:08:44.816Z,24.18
2019-05-21T11:11:14.814Z,25.95
2019-05-21T11:13:43.339Z,25.02
2019-05-21T11:16:11.932Z,25.23
2019-05-21T11:18:40.398Z,22.52
2019-05-21T11:21:10.460Z,24.65
2019-05-21T11:23:38.954Z,22.22
2019-05-21T11:26:07.477Z,23.02
2019-05-21T11:28:35.936Z,25.95
2019-05-21T11:31:04.529Z,23.45
2019-05-21T11:33:32.976Z,33.58
2019-05-21T11:36:01.459Z,23.95
2019-05-21T11:38:39.456Z,32.83
2019-05-21T11:41:01.738Z,25.88
2019-05-21T11:43:30.257Z,29.40
2019-05-21T11:45:58.814Z,29.02
2019-05-21T11:48:27.371Z,21.85
2019-05-21T11:50:55.794Z,25.68
2019-05-21T11:53:24.346Z,25.20
2019-05-21T11:55:52.794Z,29.25
2019-05-21T11:58:21.230Z,20.27
2019-05-21T12:00:49.921Z,21.15
2019-05-21T12:03:18.449Z,21.40
2019-05-21T12:05:46.924Z,24.72
2019-05-21T12:08:15.369Z,20.17
2019-05-21T12:10:45.775Z,21.33
2019-05-21T12:13:20.225Z,22.40
2019-05-21T12:15:47.163Z,18.32
2019-05-21T12:18:15.611Z,24.25
2019-05-21T12:20:45.040Z,18.17
2019-05-21T12:23:13.523Z,24.47
2019-05-21T12:25:42.117Z,25.77
2019-05-21T12:28:11.442Z,22.85
2019-05-21T12:30:40.190Z,21.80
2019-05-21T12:33:08.659Z,20.32
2019-05-21T12:35:37.122Z,18.65
2019-05-21T12:38:05.622Z,20.12
2019-05-21T12:40:34.142Z,22.62
2019-05-21T12:43:02.585Z,24.72
2019-05-21T12:45:31.043Z,26.40
2019-05-21T12:47:59.644Z,21.60
2019-05-21T12:50:28.273Z,16.77
2019-05-21T12:52:56.718Z,17.50
2019-05-21T12:55:26.858Z,20.88
2019-05-21T12:57:55.227Z,20.88
2019-05-21T13:00:25.275Z,16.80
2019-05-21T13:02:53.808Z,15.20
2019-05-21T13:05:22.573Z,18.20
2019-05-21T13:07:51.008Z,15.45
2019-05-21T13:10:19.507Z,18.30
2019-05-21T13:12:48.028Z,22.77
2019-05-21T13:15:16.584Z,16.85
2019-05-21T13:17:45.184Z,16.23
2019-05-21T13:20:16.015Z,21.93
2019-05-21T13:25:13.354Z,15.38
2019-05-21T13:27:42.209Z,19.45
2019-05-21T13:30:15.810Z,24.60
2019-05-21T13:32:44.308Z,24.27
2019-05-21T13:35:13.183Z,23.98
2019-05-21T13:37:46.764Z,17.75
2019-05-21T13:40:15.813Z,18.10
2019-05-21T13:42:44.307Z,22.90
2019-05-21T13:45:14.997Z,20.80
2019-05-21T13:47:46.577Z,23.32
2019-05-21T13:50:17.831Z,24.85
2019-05-21T13:52:47.993Z,28.70
2019-05-21T13:55:16.787Z,29.18
2019-05-21T13:57:45.341Z,33.02
2019-05-21T14:00:25.446Z,37.40
2019-05-21T14:02:55.502Z,36.38
2019-05-21T14:05:24.414Z,41.20
2019-05-21T14:07:52.910Z,47.27
2019-05-21T14:10:23.108Z,53.87
2019-05-21T14:12:51.527Z,49.30
2019-05-21T14:15:20.069Z,44.33
2019-05-21T14:17:50.011Z,43.28
2019-05-21T14:20:18.686Z,40.17
2019-05-21T14:22:47.212Z,47.05
2019-05-21T14:25:18.489Z,46.00
2019-05-21T14:27:47.075Z,43.00
2019-05-21T14:30:17.338Z,45.48
2019-05-21T14:32:45.846Z,40.90
2019-05-21T14:35:14.310Z,41.20
2019-05-21T14:37:42.769Z,41.48
2019-05-21T14:40:30.367Z,37.50
2019-05-21T14:42:58.587Z,41.68
2019-05-21T14:45:15.850Z,39.48
2019-05-21T14:47:45.511Z,42.17
2019-05-21T14:50:14.143Z,39.55
2019-05-21T14:52:42.618Z,41.13
2019-05-21T14:55:12.204Z,41.20
2019-05-21T14:57:40.655Z,33.67
2019-05-21T15:00:17.584Z,37.48
2019-05-21T15:02:46.171Z,34.63
2019-05-21T15:05:14.887Z,37.38
2019-05-21T15:07:43.372Z,35.65
2019-05-21T15:10:13.528Z,36.98
2019-05-21T15:12:46.359Z,38.28
2019-05-21T15:15:17.684Z,34.20
2019-05-21T15:17:47.772Z,39.15
2019-05-21T15:20:18.884Z,32.78
2019-05-21T15:22:47.396Z,28.65
2019-05-21T15:25:15.924Z,30.10
2019-05-21T15:27:44.493Z,37.00
2019-05-21T15:30:13.507Z,30.90
2019-05-21T15:32:42.026Z,27.90
2019-05-21T15:35:10.595Z,24.47
2019-05-21T15:37:39.743Z,22.70
2019-05-21T15:40:08.698Z,21.23
2019-05-21T15:42:38.955Z,20.92
2019-05-21T15:45:07.773Z,18.32
2019-05-21T15:47:36.364Z,21.37
2019-05-21T15:50:05.510Z,19.35
2019-05-21T15:52:35.420Z,17.23
2019-05-21T15:55:07.299Z,23.87
2019-05-21T15:57:36.142Z,19.77
2019-05-21T16:00:07.583Z,21.57
2019-05-21T16:02:45.093Z,20.65
2019-05-21T16:05:14.477Z,24.00
2019-05-21T16:07:43.028Z,20.30
2019-05-21T16:10:11.947Z,22.85
2019-05-21T16:12:40.449Z,19.37
2019-05-21T16:15:11.973Z,22.73
2019-05-21T16:17:40.508Z,21.12
2019-05-21T16:20:11.541Z,22.30
2019-05-21T16:22:44.055Z,19.62
2019-05-21T16:25:17.463Z,22.32
2019-05-21T16:27:48.570Z,22.02
2019-05-21T16:30:18.619Z,22.52
2019-05-21T16:32:47.627Z,23.83
2019-05-21T16:35:16.579Z,24.55
2019-05-21T16:37:45.119Z,20.90
2019-05-21T16:40:17.013Z,21.17
2019-05-21T16:42:45.700Z,23.27
2019-05-21T16:45:14.397Z,23.92
2019-05-21T16:47:46.080Z,23.38
2019-05-21T16:50:15.993Z,28.27
2019-05-21T16:52:44.588Z,30.77
2019-05-21T16:55:13.970Z,26.85
2019-05-21T16:57:45.788Z,23.20
2019-05-21T17:00:16.097Z,23.75
2019-05-21T17:02:49.735Z,26.50
2019-05-21T17:05:18.768Z,26.30
2019-05-21T17:07:47.366Z,30.00
2019-05-21T17:10:16.977Z,29.05
2019-05-21T17:12:48.545Z,26.55
2019-05-21T17:15:19.314Z,26.82
2019-05-21T17:17:51.814Z,26.80
2019-05-21T17:20:20.952Z,23.95
2019-05-21T17:22:49.492Z,25.20
2019-05-21T17:25:19.642Z,25.12
2019-05-21T17:27:49.726Z,21.75
2019-05-21T17:30:20.070Z,21.82
2019-05-21T17:32:57.444Z,18.07
2019-05-21T17:35:28.749Z,19.55
2019-05-21T17:37:59.910Z,25.02
2019-05-21T17:40:28.521Z,23.10
2019-05-21T17:42:59.980Z,19.23
2019-05-21T17:45:29.902Z,23.27
2019-05-21T17:47:58.383Z,25.10
2019-05-21T17:50:28.491Z,26.85
2019-05-21T17:52:56.997Z,23.50
2019-05-21T17:55:27.517Z,20.17
2019-05-21T17:57:56.111Z,24.18
2019-05-21T18:00:27.846Z,20.08
2019-05-21T18:03:01.108Z,21.90
2019-05-21T18:05:30.228Z,21.05
2019-05-21T18:08:00.299Z,17.65
2019-05-21T18:10:29.189Z,24.63
2019-05-21T18:12:59.259Z,18.23
2019-05-21T18:15:32.513Z,16.77
2019-05-21T18:18:02.612Z,19.40
2019-05-21T18:20:33.570Z,21.20
2019-05-21T18:23:09.322Z,18.00
2019-05-21T18:25:39.076Z,15.13
2019-05-21T18:28:07.713Z,16.45
2019-05-21T18:30:36.477Z,24.50
2019-05-21T18:33:08.904Z,20.17
2019-05-21T18:35:37.352Z,19.80
2019-05-21T18:38:09.285Z,24.90
2019-05-21T18:40:39.334Z,29.10
2019-05-21T18:43:07.995Z,25.40
2019-05-21T18:45:39.874Z,27.85
2019-05-21T18:48:08.733Z,28.60
2019-05-21T18:50:38.771Z,30.30
2019-05-21T18:53:08.119Z,28.05
2019-05-21T18:55:38.177Z,32.03
2019-05-21T18:58:07.813Z,34.98
2019-05-21T19:00:39.146Z,27.02
2019-05-21T19:03:10.410Z,31.40
2019-05-21T19:05:38.949Z,29.15
2019-05-21T19:08:07.579Z,30.90
2019-05-21T19:10:36.185Z,33.85
2019-05-21T19:13:06.246Z,30.82
2019-05-21T19:15:40.971Z,33.53
2019-05-21T19:18:09.389Z,32.70
2019-05-21T19:20:39.421Z,31.80
2019-05-21T19:23:09.457Z,40.23
2019-05-21T19:25:39.467Z,30.60
2019-05-21T19:28:08.006Z,35.23
2019-05-21T19:30:38.171Z,29.55
2019-05-21T19:33:06.790Z,32.38
2019-05-21T19:35:35.317Z,34.20
2019-05-21T19:38:07.110Z,34.40
2019-05-21T19:40:35.579Z,32.85
2019-05-21T19:43:04.095Z,30.70
2019-05-21T19:45:34.186Z,31.33
2019-05-21T19:48:02.686Z,28.10
2019-05-21T19:50:31.232Z,29.77
2019-05-21T19:52:59.733Z,31.05
2019-05-21T19:55:29.608Z,28.32
2019-05-21T19:57:58.139Z,29.40
2019-05-21T20:00:29.265Z,28.62
2019-05-21T20:02:59.314Z,29.72
2019-05-21T20:05:28.203Z,31.73
2019-05-21T20:07:56.703Z,34.33
2019-05-21T20:10:25.217Z,31.20
2019-05-21T20:12:53.884Z,34.00
2019-05-21T20:15:22.375Z,35.13
2019-05-21T20:18:06.240Z,33.20
2019-05-21T20:20:23.037Z,36.63
2019-05-21T20:22:54.085Z,36.03
2019-05-21T20:25:23.432Z,36.23
2019-05-21T20:27:55.790Z,31.95
2019-05-21T20:30:24.950Z,34.70
2019-05-21T20:32:54.280Z,31.82
2019-05-21T20:35:25.627Z,38.13
2019-05-21T20:37:59.391Z,31.15
2019-05-21T20:40:25.693Z,39.05
2019-05-21T20:42:54.616Z,36.20
2019-05-21T20:45:23.213Z,32.63
2019-05-21T20:47:53.350Z,32.67
2019-05-21T20:50:24.256Z,47.55
2019-05-21T20:55:22.281Z,36.90
2019-05-21T20:57:50.858Z,37.03
2019-05-21T21:00:23.939Z,35.25
2019-05-21T21:02:53.087Z,36.48
2019-05-21T21:05:21.783Z,37.05
2019-05-21T21:07:53.762Z,40.78
2019-05-21T21:10:22.433Z,41.30
2019-05-21T21:12:51.229Z,40.05
2019-05-21T21:15:20.294Z,43.23
2019-05-21T21:18:06.788Z,41.63
2019-05-21T21:20:36.980Z,45.50
2019-05-21T21:23:10.803Z,40.95
2019-05-21T21:25:45.674Z,38.38
2019-05-21T21:28:20.414Z,43.45
2019-05-21T21:30:49.084Z,48.50
2019-05-21T21:33:41.959Z,45.65
2019-05-21T21:35:58.513Z,42.62
2019-05-21T21:38:33.313Z,45.12
2019-05-21T21:41:02.589Z,42.98
2019-05-21T21:43:31.224Z,50.45
2019-05-21T21:45:59.935Z,43.83
2019-05-21T21:48:34.342Z,51.98
2019-05-21T21:51:07.395Z,38.88
2019-05-21T21:53:37.016Z,41.25
2019-05-21T21:56:05.545Z,43.68
2019-05-21T21:58:34.061Z,45.35
2019-05-21T22:01:07.235Z,46.20
2019-05-21T22:03:37.576Z,45.03
2019-05-21T22:06:10.044Z,49.03
2019-05-21T22:08:39.012Z,43.13
2019-05-21T22:11:11.984Z,43.05
2019-05-21T22:13:40.936Z,42.25
2019-05-21T22:16:09.566Z,49.30
2019-05-21T22:18:38.419Z,49.55
2019-05-21T22:21:07.603Z,44.55
2019-05-21T22:23:36.345Z,47.08
2019-05-21T22:26:04.947Z,53.35
2019-05-21T22:28:33.404Z,46.18
2019-05-21T22:31:01.998Z,50.08
2019-05-21T22:33:30.618Z,48.80
2019-05-21T22:36:03.485Z,47.17
2019-05-21T22:38:32.484Z,49.00
2019-05-21T22:41:00.970Z,52.58
2019-05-21T22:43:30.413Z,54.70
2019-05-21T22:45:58.873Z,49.40
2019-05-21T22:48:27.433Z,54.63
2019-05-21T22:50:56.022Z,55.83
2019-05-21T22:53:24.714Z,55.45
2019-05-21T22:55:53.495Z,51.60
2019-05-21T22:58:22.015Z,56.80
2019-05-21T23:00:53.205Z,53.10
2019-05-21T23:03:23.598Z,55.95
2019-05-21T23:05:52.103Z,55.17
2019-05-21T23:08:20.698Z,56.53
2019-05-21T23:10:49.399Z,57.95
2019-05-21T23:13:17.872Z,57.10
2019-05-21T23:15:47.815Z,53.95
2019-05-21T23:18:16.991Z,54.03
2019-05-21T23:20:47.447Z,56.15
2019-05-21T23:23:16.274Z,48.40
2019-05-21T23:25:47.377Z,52.43
2019-05-21T23:28:15.932Z,56.90
2019-05-21T23:30:44.403Z,50.33
2019-05-21T23:33:14.528Z,47.13
2019-05-21T23:35:44.871Z,49.40
2019-05-21T23:38:13.549Z,52.33
2019-05-21T23:40:42.392Z,50.43
2019-05-21T23:43:11.051Z,50.75
2019-05-21T23:45:39.533Z,54.85
2019-05-21T23:48:09.889Z,42.98
2019-05-21T23:50:38.470Z,47.65
2019-05-21T23:53:09.080Z,54.35
2019-05-21T23:55:38.257Z,48.90
2019-05-21T23:58:08.045Z,49.30
